Time;durP1;ratioP1;P1;durP2;ratioP2;P2;SDS_P1;SDS_P2;PMS_P1;PMS_P2;Temp;Humidity;BMP_temperature;BMP_pressure;BME280_temperature;BME280_humidity;BME280_pressure;Samples;Min_cycle;Max_cycle;Signal;HPM_P1;HPM_P2
2022/12/21 00:01:38;;;;;;;46.38;18.90;;;5.30;99.90;;;;;;5055809;28;20047;-83
2022/12/21 00:04:04;;;;;;;50.10;17.70;;;5.30;99.90;;;;;;5055870;28;20120;-83
2022/12/21 00:06:38;;;;;;;84.15;19.58;;;5.30;99.90;;;;;;5056215;28;20052;-83
2022/12/21 00:09:09;;;;;;;55.65;17.80;;;5.20;99.90;;;;;;5056080;28;20132;-82
2022/12/21 00:11:35;;;;;;;36.65;16.65;;;5.10;99.90;;;;;;5055666;28;20052;-82
2022/12/21 00:14:02;;;;;;;41.85;16.08;;;5.10;99.90;;;;;;5057134;28;20049;-83
2022/12/21 00:16:34;;;;;;;65.40;17.52;;;5.10;99.90;;;;;;5056757;28;20036;-82
2022/12/21 00:19:01;;;;;;;43.67;18.27;;;5.00;99.90;;;;;;5055683;28;20071;-82
2022/12/21 00:21:32;;;;;;;71.00;19.20;;;5.00;99.90;;;;;;5055874;28;20045;-82
2022/12/21 00:23:58;;;;;;;98.97;18.10;;;4.90;99.90;;;;;;5055934;28;20049;-83
2022/12/21 00:26:26;;;;;;;196.15;23.08;;;4.90;99.90;;;;;;5055715;28;20041;-82
2022/12/21 00:28:53;;;;;;;261.95;23.17;;;4.70;99.90;;;;;;5055805;28;20126;-82
2022/12/21 00:31:23;;;;;;;137.18;15.70;;;4.80;99.90;;;;;;5055607;28;20045;-82
2022/12/21 00:33:49;;;;;;;160.27;17.45;;;4.70;99.90;;;;;;5055385;28;20059;-82
2022/12/21 00:36:18;;;;;;;72.05;13.40;;;4.70;99.90;;;;;;5055635;28;20120;-82
2022/12/21 00:38:45;;;;;;;91.88;16.60;;;4.60;99.90;;;;;;5055481;28;20045;-82
2022/12/21 00:41:13;;;;;;;64.15;13.52;;;4.50;99.90;;;;;;5055323;28;20045;-82
2022/12/21 00:43:41;;;;;;;87.88;12.73;;;4.50;99.90;;;;;;5055411;28;20049;-82
2022/12/21 00:46:10;;;;;;;73.28;13.00;;;4.60;99.90;;;;;;5054841;28;20063;-82
2022/12/21 00:48:38;;;;;;;49.65;13.00;;;4.50;99.90;;;;;;5055456;28;20141;-82
2022/12/21 00:51:06;;;;;;;85.18;14.48;;;4.40;99.90;;;;;;5055171;28;20041;-82
2022/12/21 00:53:32;;;;;;;92.05;13.02;;;4.20;99.90;;;;;;5055417;28;20060;-82
2022/12/21 00:55:59;;;;;;;89.07;13.45;;;4.30;99.90;;;;;;5055110;28;20049;-82
2022/12/21 00:58:26;;;;;;;50.05;11.82;;;4.20;99.90;;;;;;5054994;28;20048;-82
2022/12/21 01:00:53;;;;;;;93.40;14.68;;;4.10;99.90;;;;;;5053894;28;20051;-82
2022/12/21 01:03:19;;;;;;;82.40;13.73;;;4.30;99.90;;;;;;5054890;28;20037;-82
2022/12/21 01:05:47;;;;;;;44.13;11.65;;;4.10;99.90;;;;;;5054911;28;20041;-82
2022/12/21 01:08:13;;;;;;;65.47;12.88;;;4.10;99.90;;;;;;5054832;28;20052;-82
2022/12/21 01:10:39;;;;;;;89.07;13.88;;;4.20;99.90;;;;;;5055093;28;20053;-82
2022/12/21 01:13:05;;;;;;;47.47;12.90;;;4.00;99.90;;;;;;5055891;28;20102;-82
2022/12/21 01:15:30;;;;;;;63.67;12.18;;;4.00;99.90;;;;;;5054566;28;20473;-82
2022/12/21 01:17:56;;;;;;;51.95;12.20;;;4.10;99.90;;;;;;5055719;28;20048;-82
2022/12/21 01:20:22;;;;;;;77.88;13.18;;;4.00;99.90;;;;;;5055889;28;20052;-82
2022/12/21 01:22:47;;;;;;;118.18;15.43;;;4.00;99.90;;;;;;5055965;28;20045;-82
2022/12/21 01:25:13;;;;;;;80.65;12.20;;;4.00;99.90;;;;;;5054560;28;20049;-82
2022/12/21 01:27:39;;;;;;;58.25;11.77;;;3.80;99.90;;;;;;5054624;28;20047;-82
2022/12/21 01:30:06;;;;;;;139.32;16.85;;;3.90;99.90;;;;;;5054283;28;20572;-82
2022/12/21 01:32:32;;;;;;;64.35;12.93;;;4.00;99.90;;;;;;5054405;28;20067;-82
2022/12/21 01:34:57;;;;;;;94.95;13.75;;;3.90;99.90;;;;;;5054599;28;20053;-82
2022/12/21 01:37:23;;;;;;;142.02;16.95;;;3.90;99.90;;;;;;5054508;28;20481;-82
2022/12/21 01:39:49;;;;;;;73.57;12.07;;;4.00;99.90;;;;;;5054001;28;20405;-82
2022/12/21 01:42:15;;;;;;;53.38;11.45;;;3.90;99.90;;;;;;5054754;28;20049;-82
2022/12/21 01:45:00;;;;;;;92.78;13.23;;;3.90;99.90;;;;;;5053955;28;20446;-82
2022/12/21 01:47:39;;;;;;;156.82;17.73;;;3.90;99.90;;;;;;5055441;28;20049;-82
2022/12/21 01:50:29;;;;;;;87.05;12.82;;;3.90;99.90;;;;;;5054135;28;20041;-82
2022/12/21 01:52:56;;;;;;;109.05;13.82;;;4.00;99.90;;;;;;5053907;28;20102;-82
2022/12/21 01:55:22;;;;;;;142.73;15.70;;;3.90;99.90;;;;;;5054165;28;20040;-82
2022/12/21 01:57:48;;;;;;;78.72;14.20;;;4.00;99.90;;;;;;5055208;28;20124;-82
2022/12/21 02:00:14;;;;;;;112.13;16.42;;;4.10;99.90;;;;;;5055133;28;20131;-82
2022/12/21 02:02:55;;;;;;;58.50;13.02;;;4.10;99.90;;;;;;5054083;28;20099;-82
2022/12/21 02:05:30;;;;;;;75.45;13.32;;;4.00;99.90;;;;;;5053704;28;20045;-82
2022/12/21 02:07:59;;;;;;;51.88;12.70;;;4.00;99.90;;;;;;5053691;28;20052;-82
2022/12/21 02:10:25;;;;;;;71.68;13.43;;;4.00;99.90;;;;;;5053567;28;20106;-82
2022/12/21 02:12:57;;;;;;;94.53;15.35;;;4.10;99.90;;;;;;5053518;28;20045;-82
2022/12/21 02:15:37;;;;;;;72.65;13.90;;;4.00;99.90;;;;;;5053719;28;20041;-82
2022/12/21 02:18:30;;;;;;;44.53;11.63;;;4.00;99.90;;;;;;5053630;28;20045;-82
2022/12/21 02:21:11;;;;;;;43.80;12.02;;;3.90;99.90;;;;;;5053531;28;20119;-82
2022/12/21 02:23:47;;;;;;;54.78;12.25;;;4.10;99.90;;;;;;5053318;28;20041;-82
2022/12/21 02:26:41;;;;;;;54.92;11.20;;;4.00;99.90;;;;;;5053261;28;20051;-82
2022/12/21 02:29:25;;;;;;;;;;;3.90;99.90;;;;;;5054020;28;20047;-82
2022/12/21 02:31:50;;;;;;;;;;;4.00;99.90;;;;;;5053476;28;19921;-82
2022/12/21 02:34:31;;;;;;;108.28;12.65;;;3.80;99.90;;;;;;5053018;28;19935;-82
2022/12/21 02:37:15;;;;;;;60.75;13.18;;;3.90;99.90;;;;;;5053118;28;20162;-82
2022/12/21 02:40:13;;;;;;;57.55;11.90;;;3.80;99.90;;;;;;5052993;28;20045;-82
2022/12/21 02:46:25;;;;;;;94.18;15.40;;;3.90;99.90;;;;;;5052849;28;20107;-82
2022/12/21 02:48:59;;;;;;;107.40;15.57;;;3.70;99.90;;;;;;5052836;28;20132;-82
2022/12/21 02:51:51;;;;;;;54.25;13.95;;;3.70;99.90;;;;;;5052879;28;20041;-82
2022/12/21 02:54:18;;;;;;;163.30;20.40;;;3.80;99.90;;;;;;5050610;28;20060;-82
2022/12/21 02:56:44;;;;;;;176.05;22.45;;;3.80;99.90;;;;;;5052831;28;20053;-82
2022/12/21 02:59:16;;;;;;;66.70;14.75;;;3.70;99.90;;;;;;5052555;28;20048;-82
2022/12/21 03:02:24;;;;;;;160.57;20.00;;;3.70;99.90;;;;;;5052782;28;20051;-82
2022/12/21 03:04:56;;;;;;;115.25;18.55;;;3.70;99.90;;;;;;5043011;28;20067;-81
2022/12/21 03:08:00;;;;;;;116.63;16.60;;;3.80;99.90;;;;;;5052821;28;20059;-82
2022/12/21 03:10:35;;;;;;;;;;;3.70;99.90;;;;;;5052145;28;20049;-82
2022/12/21 03:13:19;;;;;;;118.82;17.90;;;3.80;99.90;;;;;;5052650;28;19921;-82
2022/12/21 03:16:08;;;;;;;139.90;18.00;;;3.80;99.90;;;;;;5052660;28;20049;-82
2022/12/21 03:18:59;;;;;;;112.30;19.27;;;3.70;99.90;;;;;;5052348;28;20049;-82
2022/12/21 03:21:39;;;;;;;128.13;18.52;;;3.80;99.90;;;;;;5052737;28;20115;-82
2022/12/21 03:24:14;;;;;;;125.97;17.77;;;3.70;99.90;;;;;;5052083;28;20037;-82
2022/12/21 03:26:39;;;;;;;61.90;15.25;;;3.80;99.90;;;;;;5053519;28;20494;-82
2022/12/21 03:29:08;;;;;;;196.65;23.05;;;3.60;99.90;;;;;;5052482;28;20051;-82
2022/12/21 03:31:42;;;;;;;147.00;17.63;;;3.60;99.90;;;;;;5052314;28;20044;-82
2022/12/21 03:34:32;;;;;;;107.03;16.08;;;3.50;99.90;;;;;;5052594;28;20064;-82
2022/12/21 03:37:18;;;;;;;132.18;16.85;;;3.50;99.90;;;;;;5052438;28;20424;-82
2022/12/21 03:39:49;;;;;;;60.15;12.25;;;3.50;99.90;;;;;;5052164;28;20045;-82
2022/12/21 03:42:19;;;;;;;91.28;14.77;;;3.60;99.90;;;;;;5052538;28;20127;-82
2022/12/21 03:44:52;;;;;;;109.90;15.57;;;3.40;99.90;;;;;;5052009;28;20435;-82
2022/12/21 03:47:24;;;;;;;85.18;16.00;;;3.50;99.90;;;;;;5052710;28;20051;-82
2022/12/21 03:50:04;;;;;;;82.68;14.68;;;3.40;99.90;;;;;;5052422;28;20477;-82
2022/12/21 03:52:38;;;;;;;91.55;14.02;;;3.50;99.90;;;;;;5052146;28;20084;-82
2022/12/21 03:55:09;;;;;;;76.07;14.63;;;3.50;99.90;;;;;;5052164;28;20080;-82
2022/12/21 03:57:36;;;;;;;83.78;14.20;;;3.40;99.90;;;;;;5052237;28;20492;-82
2022/12/21 04:00:04;;;;;;;67.63;13.43;;;3.50;99.90;;;;;;5051927;28;20098;-82
2022/12/21 04:02:48;;;;;;;56.03;12.40;;;3.40;99.90;;;;;;5053438;28;20044;-82
2022/12/21 04:05:20;;;;;;;97.60;14.80;;;3.40;99.90;;;;;;5052290;28;20049;-82
2022/12/21 04:07:48;;;;;;;108.68;17.35;;;3.40;99.90;;;;;;5051839;28;20045;-82
2022/12/21 04:10:17;;;;;;;106.60;15.18;;;3.50;99.90;;;;;;5051832;28;20048;-82
2022/12/21 04:12:46;;;;;;;92.28;14.77;;;3.40;99.90;;;;;;5051888;28;20049;-82
2022/12/21 04:15:14;;;;;;;67.00;14.13;;;3.40;99.90;;;;;;5052165;28;20056;-82
2022/12/21 04:17:41;;;;;;;41.70;13.07;;;3.40;99.90;;;;;;5052235;28;20045;-82
2022/12/21 04:20:10;;;;;;;52.67;12.85;;;3.60;99.90;;;;;;5051721;28;20057;-82
2022/12/21 04:28:16;;;;;;;107.32;15.30;;;3.50;99.90;;;;;;5051852;28;20044;-82
2022/12/21 04:30:44;;;;;;;55.55;13.77;;;3.60;99.90;;;;;;5051677;28;20049;-82
2022/12/21 04:33:13;;;;;;;69.60;13.13;;;3.60;99.90;;;;;;5052829;28;20377;-82
2022/12/21 04:38:25;;;;;;;49.08;12.23;;;3.50;99.90;;;;;;5055396;28;20541;-82
2022/12/21 04:40:55;;;;;;;103.22;15.30;;;3.60;99.90;;;;;;5055390;28;20057;-82
2022/12/21 04:43:21;;;;;;;74.97;15.68;;;3.70;99.90;;;;;;5055429;28;20036;-82
2022/12/21 04:45:47;;;;;;;92.65;12.77;;;3.60;99.90;;;;;;5055092;28;20199;-82
2022/12/21 04:48:14;;;;;;;101.55;14.80;;;3.60;99.90;;;;;;5055177;28;20505;-82
2022/12/21 04:50:41;;;;;;;87.88;14.38;;;3.70;99.90;;;;;;5055146;28;20051;-82
2022/12/21 04:53:07;;;;;;;83.65;13.18;;;3.70;99.90;;;;;;5055182;28;20499;-82
2022/12/21 04:55:32;;;;;;;117.70;15.13;;;3.70;99.90;;;;;;5055352;28;20049;-82
2022/12/21 04:57:58;;;;;;;108.70;14.80;;;3.80;99.90;;;;;;5055110;28;20052;-82
2022/12/21 05:00:24;;;;;;;167.38;18.70;;;3.80;99.90;;;;;;5038361;28;20041;-82
2022/12/21 05:02:50;;;;;;;121.32;16.13;;;3.90;99.90;;;;;;5056184;28;20044;-82
2022/12/21 05:05:16;;;;;;;112.75;15.43;;;3.80;99.90;;;;;;5055220;28;20080;-82
2022/12/21 05:07:42;;;;;;;146.68;15.98;;;3.90;99.90;;;;;;5055325;28;20045;-82
2022/12/21 05:10:08;;;;;;;110.75;15.18;;;3.80;99.90;;;;;;5055115;28;20468;-82
2022/12/21 05:12:34;;;;;;;116.45;16.50;;;4.00;99.90;;;;;;5054929;28;20132;-82
2022/12/21 05:15:00;;;;;;;119.13;15.27;;;3.90;99.90;;;;;;5054692;28;20124;-83
2022/12/21 05:17:25;;;;;;;77.70;14.27;;;3.90;99.90;;;;;;5054783;28;20049;-82
2022/12/21 05:19:51;;;;;;;100.00;15.75;;;3.90;99.90;;;;;;5054627;28;20041;-82
2022/12/21 05:22:17;;;;;;;83.75;13.82;;;3.90;99.90;;;;;;5054872;28;20058;-82
2022/12/21 05:24:44;;;;;;;71.90;14.60;;;3.90;99.90;;;;;;5054898;28;20107;-83
2022/12/21 05:27:11;;;;;;;106.90;15.00;;;4.00;99.90;;;;;;5054686;28;20041;-83
2022/12/21 05:29:37;;;;;;;71.50;13.60;;;4.10;99.90;;;;;;5054354;28;20211;-82
2022/12/21 05:32:03;;;;;;;109.80;14.82;;;3.90;99.90;;;;;;5055882;28;20049;-82
2022/12/21 05:34:28;;;;;;;89.28;13.27;;;4.00;99.90;;;;;;5055612;28;20051;-82
2022/12/21 05:36:54;;;;;;;83.55;13.27;;;4.00;99.90;;;;;;5054459;28;20048;-82
2022/12/21 05:39:19;;;;;;;119.20;15.85;;;4.00;99.90;;;;;;5054201;28;20128;-82
2022/12/21 05:41:45;;;;;;;82.57;14.93;;;4.10;99.90;;;;;;5054134;28;20099;-82
2022/12/21 05:44:11;;;;;;;135.13;17.27;;;4.00;99.90;;;;;;5055422;28;20049;-82
2022/12/21 05:46:37;;;;;;;103.70;15.73;;;4.00;99.90;;;;;;5053392;28;20061;-82
2022/12/21 05:49:03;;;;;;;115.28;16.40;;;4.00;99.90;;;;;;5054104;28;20088;-82
2022/12/21 05:51:28;;;;;;;193.82;19.15;;;4.00;99.90;;;;;;5054080;28;20052;-82
2022/12/21 05:53:54;;;;;;;103.75;13.63;;;3.90;99.90;;;;;;5054033;28;20045;-82
2022/12/21 05:56:20;;;;;;;123.20;16.85;;;4.00;99.90;;;;;;5053795;28;20045;-82
2022/12/21 05:58:46;;;;;;;174.18;18.73;;;4.00;99.90;;;;;;5053958;28;20469;-82
2022/12/21 06:01:12;;;;;;;200.48;20.33;;;4.00;99.90;;;;;;5054062;28;20107;-82
2022/12/21 06:03:39;;;;;;;177.93;18.33;;;3.90;99.90;;;;;;5053786;28;20477;-82
2022/12/21 06:06:11;;;;;;;210.88;20.38;;;4.00;99.90;;;;;;5054036;28;20052;-82
2022/12/21 06:08:37;;;;;;;118.47;16.65;;;4.00;99.90;;;;;;5054071;28;20388;-82
2022/12/21 06:11:15;;;;;;;141.75;17.40;;;3.90;99.90;;;;;;5053592;28;20041;-83
2022/12/21 06:13:40;;;;;;;166.50;18.27;;;4.00;99.90;;;;;;5054280;28;20080;-82
2022/12/21 06:16:16;;;;;;;97.93;14.13;;;4.00;99.90;;;;;;5053560;28;20464;-83
2022/12/21 06:18:42;;;;;;;110.28;15.13;;;4.00;99.90;;;;;;5053482;28;20053;-83
2022/12/21 06:21:09;;;;;;;204.15;19.77;;;4.00;99.90;;;;;;5053597;28;20041;-83
2022/12/21 06:23:35;;;;;;;226.55;20.08;;;4.00;99.90;;;;;;5053563;28;20450;-83
2022/12/21 06:26:03;;;;;;;198.18;20.73;;;3.90;99.90;;;;;;5053335;28;20072;-83
2022/12/21 06:28:29;;;;;;;215.50;21.75;;;4.10;99.90;;;;;;5053597;28;20067;-83
2022/12/21 06:31:00;;;;;;;124.40;15.27;;;4.00;99.90;;;;;;5053329;28;20549;-83
2022/12/21 06:33:27;;;;;;;151.35;18.58;;;4.00;99.90;;;;;;5053641;28;20135;-83
2022/12/21 06:35:56;;;;;;;132.27;16.58;;;4.00;99.90;;;;;;5053236;28;20480;-83
2022/12/21 06:38:23;;;;;;;121.45;16.75;;;3.90;99.90;;;;;;5053640;28;20045;-82
2022/12/21 06:40:57;;;;;;;184.38;20.40;;;4.10;99.90;;;;;;5053267;28;20043;-81
2022/12/21 06:43:25;;;;;;;113.43;16.48;;;4.00;99.90;;;;;;5053125;28;20060;-82
2022/12/21 06:45:56;;;;;;;177.95;19.90;;;4.00;99.90;;;;;;5052887;28;20084;-82
2022/12/21 06:48:23;;;;;;;125.60;16.90;;;4.00;99.90;;;;;;5052802;28;20401;-82
2022/12/21 06:51:00;;;;;;;141.25;17.90;;;4.00;99.90;;;;;;5053094;28;20044;-82
2022/12/21 06:53:34;;;;;;;89.68;17.20;;;4.10;99.90;;;;;;5052915;28;20122;-82
2022/12/21 06:56:05;;;;;;;158.57;19.40;;;4.00;99.90;;;;;;5052909;28;20037;-82
2022/12/21 06:58:31;;;;;;;165.93;20.23;;;4.10;99.90;;;;;;5051980;28;20049;-82
2022/12/21 07:01:07;;;;;;;167.02;20.25;;;4.00;99.90;;;;;;5052632;28;20052;-82
2022/12/21 07:03:33;;;;;;;179.60;22.85;;;4.10;99.90;;;;;;5052933;28;20029;-82
2022/12/21 07:05:59;;;;;;;136.63;18.92;;;4.10;99.90;;;;;;5053964;28;20041;-83
2022/12/21 07:08:25;;;;;;;135.00;18.52;;;4.10;99.90;;;;;;5052906;28;20048;-83
2022/12/21 07:10:56;;;;;;;113.57;17.08;;;4.10;99.90;;;;;;5052837;28;20423;-82
2022/12/21 07:13:22;;;;;;;118.95;20.20;;;4.10;99.90;;;;;;5053907;28;20051;-82
2022/12/21 07:15:48;;;;;;;138.65;21.52;;;4.20;99.90;;;;;;5052668;28;20132;-82
2022/12/21 07:18:13;;;;;;;133.70;19.08;;;4.20;99.90;;;;;;5052660;28;20493;-82
2022/12/21 07:20:39;;;;;;;102.53;19.80;;;4.20;99.90;;;;;;5053685;28;20045;-82
2022/12/21 07:23:04;;;;;;;113.80;18.45;;;4.10;99.90;;;;;;5053723;28;20037;-82
2022/12/21 07:25:30;;;;;;;154.63;20.60;;;4.20;99.90;;;;;;5052656;28;20041;-82
2022/12/21 07:27:57;;;;;;;100.90;19.27;;;4.20;99.90;;;;;;5052289;28;20392;-83
2022/12/21 07:30:23;;;;;;;113.13;20.02;;;4.30;99.90;;;;;;5052236;28;20052;-83
2022/12/21 07:32:51;;;;;;;101.18;17.95;;;4.30;99.90;;;;;;5052314;28;20045;-83
2022/12/21 07:35:17;;;;;;;115.03;19.92;;;4.20;99.90;;;;;;5052555;28;20485;-83
2022/12/21 07:37:42;;;;;;;121.43;22.15;;;4.20;99.90;;;;;;5052555;28;20060;-82
2022/12/21 07:40:09;;;;;;;106.63;20.85;;;4.30;99.90;;;;;;5052174;28;20052;-83
2022/12/21 07:42:35;;;;;;;103.95;19.70;;;4.20;99.90;;;;;;5045388;28;20074;-81
2022/12/21 07:45:01;;;;;;;116.10;21.27;;;4.30;99.90;;;;;;5033902;28;20144;-81
2022/12/21 07:47:27;;;;;;;106.43;21.60;;;4.20;99.90;;;;;;5032042;28;20054;-82
2022/12/21 07:49:55;;;;;;;98.93;19.58;;;4.30;99.90;;;;;;5031929;28;20523;-82
2022/12/21 07:52:21;;;;;;;133.32;22.15;;;4.20;99.90;;;;;;5031332;28;20048;-82
2022/12/21 07:54:47;;;;;;;119.00;23.40;;;4.40;99.90;;;;;;5030468;28;20177;-82
2022/12/21 07:57:12;;;;;;;151.65;23.73;;;4.30;99.90;;;;;;5031230;28;20042;-81
2022/12/21 07:59:38;;;;;;;167.00;25.63;;;4.30;99.90;;;;;;5031792;28;20049;-81
2022/12/21 08:02:04;;;;;;;169.85;26.85;;;4.30;99.90;;;;;;5031781;28;20038;-85
2022/12/21 08:04:29;;;;;;;159.88;26.67;;;4.40;99.90;;;;;;5031626;28;20049;-82
2022/12/21 08:06:55;;;;;;;157.68;23.30;;;4.40;99.90;;;;;;5031955;28;20140;-82
2022/12/21 08:09:21;;;;;;;166.77;27.85;;;4.50;99.90;;;;;;5031948;28;20068;-83
2022/12/21 08:11:47;;;;;;;189.52;27.33;;;4.50;99.90;;;;;;5035853;28;20038;-82
2022/12/21 08:14:13;;;;;;;176.35;28.15;;;4.50;99.90;;;;;;5035610;28;20058;-83
2022/12/21 08:16:38;;;;;;;144.93;25.73;;;4.50;99.90;;;;;;5036935;28;20045;-82
2022/12/21 08:19:04;;;;;;;148.00;27.08;;;4.50;99.90;;;;;;5035373;28;20045;-82
2022/12/21 08:21:29;;;;;;;170.88;25.92;;;4.60;99.90;;;;;;5035472;28;20053;-80
2022/12/21 08:23:55;;;;;;;154.10;24.42;;;4.70;99.90;;;;;;5035305;28;20041;-84
2022/12/21 08:26:21;;;;;;;210.88;28.52;;;4.70;99.90;;;;;;5035315;28;20117;-82
2022/12/21 08:28:47;;;;;;;131.15;24.60;;;4.70;99.90;;;;;;5035322;28;20048;-83
2022/12/21 08:31:18;;;;;;;140.70;25.05;;;4.70;99.90;;;;;;5046498;28;20115;-82
2022/12/21 08:33:45;;;;;;;108.00;22.98;;;4.70;99.90;;;;;;5055090;28;20443;-83
2022/12/21 08:36:19;;;;;;;114.20;21.65;;;4.70;99.90;;;;;;5055062;28;20495;-82
2022/12/21 08:38:45;;;;;;;137.55;23.58;;;4.80;99.90;;;;;;5055304;28;20480;-81
2022/12/21 08:41:11;;;;;;;125.68;25.40;;;4.80;99.90;;;;;;5055008;28;20069;-80
2022/12/21 08:43:38;;;;;;;137.85;24.95;;;4.70;99.90;;;;;;5055213;28;20126;-82
2022/12/21 08:46:15;;;;;;;112.25;22.83;;;4.80;99.90;;;;;;5054591;28;20048;-88
2022/12/21 08:48:40;;;;;;;130.70;24.38;;;4.80;99.90;;;;;;5055132;28;20056;-82
2022/12/21 08:51:07;;;;;;;139.20;25.02;;;4.80;99.90;;;;;;5054850;28;20496;-81
2022/12/21 08:53:33;;;;;;;155.20;26.45;;;4.80;99.90;;;;;;5055139;28;20481;-82
2022/12/21 08:55:59;;;;;;;176.73;26.35;;;4.80;99.90;;;;;;5054960;28;20049;-81
2022/12/21 08:58:27;;;;;;;140.88;25.05;;;4.80;99.90;;;;;;5054694;28;20041;-82
2022/12/21 09:00:54;;;;;;;113.88;23.58;;;4.80;99.90;;;;;;5054810;28;20098;-81
2022/12/21 09:03:21;;;;;;;102.78;22.95;;;4.80;99.90;;;;;;5054773;28;20051;-82
2022/12/21 09:05:52;;;;;;;151.50;25.48;;;5.00;99.90;;;;;;5054546;28;20045;-82
2022/12/21 09:08:18;;;;;;;121.13;24.65;;;4.90;99.90;;;;;;5055628;28;20516;-82
2022/12/21 09:10:43;;;;;;;119.78;22.73;;;4.90;99.90;;;;;;5054644;28;20044;-82
2022/12/21 09:13:09;;;;;;;124.53;24.10;;;5.00;99.90;;;;;;5054986;28;20037;-83
2022/12/21 09:15:41;;;;;;;86.45;22.80;;;4.90;99.90;;;;;;5055848;28;20067;-82
2022/12/21 09:18:07;;;;;;;126.73;27.77;;;5.00;99.90;;;;;;5055979;28;20064;-82
2022/12/21 09:20:33;;;;;;;108.28;24.70;;;5.00;99.90;;;;;;5055574;28;20051;-82
2022/12/21 09:22:59;;;;;;;109.63;25.83;;;5.00;99.90;;;;;;5053905;28;20127;-82
2022/12/21 09:25:25;;;;;;;95.20;24.80;;;4.90;99.90;;;;;;5055528;28;20489;-82
2022/12/21 09:27:51;;;;;;;104.80;25.85;;;5.00;99.90;;;;;;5054317;28;20041;-83
2022/12/21 09:30:16;;;;;;;112.65;27.30;;;5.10;99.90;;;;;;5054370;28;20076;-83
2022/12/21 09:32:42;;;;;;;96.75;25.95;;;5.10;99.90;;;;;;5054462;28;20053;-83
2022/12/21 09:35:08;;;;;;;104.97;25.08;;;5.00;99.90;;;;;;5055607;28;20041;-83
2022/12/21 09:37:33;;;;;;;109.22;25.45;;;5.00;99.90;;;;;;5054342;28;20056;-83
2022/12/21 09:39:59;;;;;;;112.28;28.58;;;5.00;99.90;;;;;;5053954;28;20045;-83
2022/12/21 09:42:52;;;;;;;109.50;28.95;;;5.10;99.90;;;;;;5055545;28;20037;-83
2022/12/21 09:45:59;;;;;;;96.13;27.08;;;5.20;99.90;;;;;;5053737;28;20065;-82
2022/12/21 09:48:33;;;;;;;94.47;25.95;;;5.40;99.90;;;;;;5054198;28;20055;-83
2022/12/21 09:51:10;;;;;;;106.75;27.13;;;5.40;99.90;;;;;;5054040;28;20040;-83
2022/12/21 09:53:46;;;;;;;101.78;28.75;;;5.50;99.90;;;;;;5054029;28;20055;-83
2022/12/21 09:56:17;;;;;;;127.47;30.02;;;5.60;99.90;;;;;;5053736;28;20124;-83
2022/12/21 09:58:46;;;;;;;119.78;31.50;;;5.60;99.90;;;;;;5054050;28;20068;-83
2022/12/21 10:01:27;;;;;;;117.03;31.05;;;5.70;99.90;;;;;;5053632;28;20072;-83
2022/12/21 10:04:11;;;;;;;129.27;29.95;;;5.60;99.90;;;;;;5053969;28;20041;-83
2022/12/21 10:06:55;;;;;;;112.10;29.73;;;5.80;99.90;;;;;;5053843;28;20060;-83
2022/12/21 10:09:27;;;;;;;119.85;29.73;;;5.70;99.90;;;;;;5053819;28;20049;-83
2022/12/21 10:12:42;;;;;;;113.82;30.63;;;5.80;99.90;;;;;;5054234;28;20045;-83
2022/12/21 10:15:21;;;;;;;114.60;31.25;;;5.90;99.90;;;;;;5042055;28;20300;-82
2022/12/21 10:18:21;;;;;;;120.05;32.28;;;6.00;99.90;;;;;;5053613;28;20044;-82
2022/12/21 10:20:47;;;;;;;144.23;35.67;;;6.00;99.90;;;;;;5041699;28;20061;-83
2022/12/21 10:23:19;;;;;;;120.90;34.40;;;6.10;99.90;;;;;;5053584;28;20055;-83
2022/12/21 10:25:49;;;;;;;124.27;33.97;;;6.10;99.90;;;;;;5053417;28;20488;-83
2022/12/21 10:28:26;;;;;;;121.03;33.85;;;6.20;99.90;;;;;;5053181;28;20036;-83
2022/12/21 10:31:09;;;;;;;107.72;33.55;;;6.10;99.90;;;;;;5053046;28;20059;-83
2022/12/21 10:33:41;;;;;;;107.30;34.00;;;6.20;99.90;;;;;;5053368;28;20048;-82
2022/12/21 10:36:18;;;;;;;110.05;32.65;;;6.10;99.90;;;;;;5053239;28;20127;-82
2022/12/21 10:38:44;;;;;;;120.78;33.35;;;6.20;99.90;;;;;;5053181;28;20044;-82
2022/12/21 10:41:28;;;;;;;117.63;34.78;;;6.20;99.90;;;;;;5053026;28;20114;-82
2022/12/21 10:43:56;;;;;;;117.90;34.05;;;6.10;99.90;;;;;;5052955;28;20377;-82
2022/12/21 10:46:28;;;;;;;140.50;42.65;;;6.20;99.90;;;;;;5052731;28;20059;-82
2022/12/21 10:49:00;;;;;;;138.73;42.17;;;6.20;99.90;;;;;;5052768;28;20408;-82
2022/12/21 10:51:32;;;;;;;155.48;52.17;;;6.20;99.90;;;;;;5052864;28;20045;-82
2022/12/21 10:54:01;;;;;;;132.48;37.85;;;6.20;99.90;;;;;;5052859;28;20519;-82
2022/12/21 10:56:29;;;;;;;131.23;38.85;;;6.30;99.90;;;;;;5052768;28;20045;-82
2022/12/21 10:59:05;;;;;;;125.22;36.97;;;6.40;99.90;;;;;;5052576;28;20053;-83
2022/12/21 11:01:33;;;;;;;122.57;37.38;;;6.40;99.90;;;;;;5052561;28;20490;-83
2022/12/21 11:04:08;;;;;;;117.22;37.42;;;6.40;99.90;;;;;;5052478;28;20056;-83
2022/12/21 11:06:34;;;;;;;127.82;37.95;;;6.40;99.90;;;;;;5052623;28;20049;-83
2022/12/21 11:09:00;;;;;;;121.88;39.30;;;6.60;99.90;;;;;;5052421;28;20082;-83
2022/12/21 11:11:25;;;;;;;121.35;36.55;;;6.70;99.90;;;;;;5052408;28;20048;-83
2022/12/21 11:14:12;;;;;;;119.63;38.28;;;6.70;99.90;;;;;;5052354;28;20049;-83
2022/12/21 11:16:37;;;;;;;111.60;34.70;;;6.80;99.90;;;;;;5052390;28;20068;-83
2022/12/21 11:19:04;;;;;;;111.97;35.67;;;6.80;99.90;;;;;;5052359;28;20049;-83
2022/12/21 11:21:38;;;;;;;122.65;37.25;;;6.80;99.90;;;;;;5052525;28;20098;-83
2022/12/21 11:24:12;;;;;;;116.65;33.85;;;6.80;99.90;;;;;;5052477;28;20077;-83
2022/12/21 11:26:51;;;;;;;115.63;34.92;;;6.80;99.90;;;;;;5052194;28;20048;-84
2022/12/21 11:29:50;;;;;;;104.03;32.90;;;6.80;99.90;;;;;;5052140;28;20124;-83
2022/12/21 11:32:18;;;;;;;108.35;33.50;;;6.90;99.90;;;;;;5045047;28;20064;-84
2022/12/21 11:34:49;;;;;;;98.82;31.15;;;7.00;99.90;;;;;;5052311;28;20052;-84
2022/12/21 11:37:26;;;;;;;92.90;33.45;;;6.80;99.90;;;;;;5053410;28;20114;-83
2022/12/21 11:39:54;;;;;;;95.35;31.55;;;6.80;99.90;;;;;;5051985;28;20103;-84
2022/12/21 11:42:22;;;;;;;111.00;32.90;;;6.90;99.90;;;;;;5052042;28;20094;-84
2022/12/21 11:44:51;;;;;;;99.75;33.95;;;6.90;99.90;;;;;;5053955;28;20048;-83
2022/12/21 11:47:37;;;;;;;102.00;33.85;;;6.90;99.90;;;;;;5059021;28;20040;-83
2022/12/21 11:50:23;;;;;;;102.47;35.28;;;6.90;99.90;;;;;;5058857;28;20055;-84
2022/12/21 11:53:13;;;;;;;102.10;33.55;;;6.90;99.90;;;;;;5058845;28;20053;-84
2022/12/21 11:56:05;;;;;;;99.15;32.83;;;6.80;99.90;;;;;;5058536;28;20036;-84
2022/12/21 11:58:50;;;;;;;97.00;34.55;;;6.90;99.90;;;;;;5048804;28;20147;-84
2022/12/21 12:01:26;;;;;;;104.60;35.05;;;7.00;99.90;;;;;;5058768;28;20563;-84
2022/12/21 12:04:00;;;;;;;122.72;44.65;;;7.00;99.90;;;;;;5058457;28;20119;-84
2022/12/21 12:06:35;;;;;;;85.15;32.55;;;7.10;99.90;;;;;;5058803;28;20132;-84
2022/12/21 12:09:27;;;;;;;86.93;30.48;;;7.10;99.90;;;;;;5058470;28;20080;-84
2022/12/21 12:12:13;;;;;;;90.55;28.98;;;7.10;99.90;;;;;;5058705;28;20480;-83
2022/12/21 12:14:47;;;;;;;92.97;27.40;;;7.10;99.90;;;;;;5058720;28;20489;-83
2022/12/21 12:17:35;;;;;;;70.75;25.83;;;7.10;99.90;;;;;;5058574;28;20039;-84
2022/12/21 12:20:29;;;;;;;76.00;25.50;;;7.20;99.90;;;;;;5058263;28;20048;-84
2022/12/21 12:23:18;;;;;;;69.78;25.60;;;7.20;99.90;;;;;;5058445;28;20044;-84
2022/12/21 12:25:56;;;;;;;79.72;26.73;;;7.30;99.90;;;;;;5058401;28;20084;-83
2022/12/21 12:28:54;;;;;;;63.10;23.02;;;7.20;99.90;;;;;;5058250;28;20123;-83
2022/12/21 12:31:46;;;;;;;66.88;23.92;;;7.30;99.90;;;;;;5047131;28;20067;-83
2022/12/21 12:34:18;;;;;;;66.93;22.75;;;7.50;99.90;;;;;;5058585;28;20057;-83
2022/12/21 12:37:14;;;;;;;61.83;24.10;;;7.40;99.90;;;;;;5058567;28;20396;-84
2022/12/21 12:39:51;;;;;;;69.57;22.38;;;7.50;99.90;;;;;;5058218;28;20044;-84
2022/12/21 12:42:21;;;;;;;68.60;23.05;;;7.60;99.90;;;;;;5058444;28;20056;-83
2022/12/21 12:45:28;;;;;;;64.60;22.33;;;7.60;99.90;;;;;;5058218;28;20045;-83
2022/12/21 12:48:05;;;;;;;69.07;21.75;;;7.60;99.90;;;;;;5053654;28;20053;-84
2022/12/21 12:50:44;;;;;;;68.00;20.58;;;7.60;99.90;;;;;;5058207;28;20128;-83
2022/12/21 12:53:40;;;;;;;70.00;22.60;;;7.60;99.90;;;;;;5058180;28;20048;-83
2022/12/21 12:56:37;;;;;;;65.28;23.45;;;7.70;99.90;;;;;;5056550;28;20048;-83
2022/12/21 12:59:21;;;;;;;66.18;23.85;;;7.60;99.90;;;;;;5055020;28;20052;-83
2022/12/21 13:02:26;;;;;;;75.57;25.98;;;7.60;99.90;;;;;;5054837;28;20056;-83
2022/12/21 13:05:25;;;;;;;79.53;28.92;;;7.50;99.90;;;;;;5051697;28;20060;-83
2022/12/21 13:08:02;;;;;;;72.63;26.25;;;7.60;99.90;;;;;;5046822;28;20053;-83